createdAt,value
2023-04-15T00:00:35.613Z,56.93
2023-04-15T00:03:02.472Z,56.75
2023-04-15T00:05:32.704Z,56.39
2023-04-15T00:07:59.900Z,56.10
2023-04-15T00:10:26.514Z,55.66
2023-04-15T00:12:53.324Z,55.14
2023-04-15T00:15:20.050Z,54.87
2023-04-15T00:17:47.168Z,54.88
2023-04-15T00:20:14.582Z,54.86
2023-04-15T00:22:41.721Z,55.04
2023-04-15T00:25:09.588Z,55.14
2023-04-15T00:27:36.286Z,55.56
2023-04-15T00:30:04.223Z,55.66
2023-04-15T00:32:31.386Z,55.76
2023-04-15T00:34:58.631Z,56.00
2023-04-15T00:37:25.633Z,56.16
2023-04-15T00:39:52.586Z,56.25
2023-04-15T00:42:21.793Z,56.15
2023-04-15T00:44:48.946Z,56.17
2023-04-15T00:47:17.546Z,55.92
2023-04-15T00:49:44.332Z,55.67
2023-04-15T00:52:11.021Z,55.63
2023-04-15T00:54:37.751Z,55.72
2023-04-15T00:57:07.193Z,55.77
2023-04-15T00:59:34.194Z,55.96
2023-04-15T01:02:01.504Z,56.01
2023-04-15T01:04:29.625Z,56.06
2023-04-15T01:06:56.325Z,56.19
2023-04-15T01:09:23.445Z,56.39
2023-04-15T01:11:51.087Z,56.50
2023-04-15T01:14:17.764Z,56.71
2023-04-15T01:16:45.442Z,56.74
2023-04-15T01:19:14.603Z,56.75
2023-04-15T01:21:41.686Z,56.80
2023-04-15T01:24:11.172Z,56.83
2023-04-15T01:26:39.633Z,56.98
2023-04-15T01:29:08.551Z,57.01
2023-04-15T01:31:35.588Z,56.87
2023-04-15T01:34:02.263Z,56.80
2023-04-15T01:36:29.885Z,56.87
2023-04-15T01:38:57.776Z,56.88
2023-04-15T01:41:28.428Z,56.71
2023-04-15T01:43:55.339Z,56.63
2023-04-15T01:46:22.937Z,56.65
2023-04-15T01:48:49.816Z,56.89
2023-04-15T01:51:16.674Z,56.89
2023-04-15T01:53:43.472Z,57.13
2023-04-15T01:56:10.982Z,56.91
2023-04-15T01:58:37.724Z,56.78
2023-04-15T02:01:04.838Z,56.59
2023-04-15T02:03:32.002Z,56.50
2023-04-15T02:05:58.779Z,56.50
2023-04-15T02:08:25.506Z,56.53
2023-04-15T02:10:52.799Z,56.62
2023-04-15T02:13:20.010Z,56.57
2023-04-15T02:15:50.751Z,56.57
2023-04-15T02:18:19.117Z,56.73
2023-04-15T02:20:47.013Z,56.69
2023-04-15T02:23:13.887Z,56.63
2023-04-15T02:25:43.737Z,56.54
2023-04-15T02:28:21.238Z,56.49
2023-04-15T02:30:52.952Z,56.64
2023-04-15T02:33:20.234Z,56.76
2023-04-15T02:35:47.557Z,56.66
2023-04-15T02:38:16.859Z,57.14
2023-04-15T02:40:43.761Z,57.17
2023-04-15T02:43:10.871Z,57.32
2023-04-15T02:45:37.597Z,57.36
2023-04-15T02:48:06.718Z,57.57
2023-04-15T02:50:33.633Z,57.27
2023-04-15T02:53:01.657Z,57.17
2023-04-15T02:55:29.373Z,57.13
2023-04-15T02:57:56.244Z,57.15
2023-04-15T03:00:25.295Z,57.11
2023-04-15T03:02:56.801Z,57.15
2023-04-15T03:05:25.463Z,57.12
2023-04-15T03:07:52.404Z,57.04
2023-04-15T03:10:20.109Z,57.33
2023-04-15T03:12:47.302Z,57.13
2023-04-15T03:15:17.693Z,57.24
2023-04-15T03:17:49.304Z,57.25
2023-04-15T03:20:16.051Z,57.30
2023-04-15T03:22:42.833Z,57.29
2023-04-15T03:25:09.737Z,57.84
2023-04-15T03:27:38.113Z,57.84
2023-04-15T03:30:05.129Z,58.00
2023-04-15T03:32:32.753Z,57.87
2023-04-15T03:34:59.361Z,57.80
2023-04-15T03:37:26.438Z,57.76
2023-04-15T03:39:53.015Z,57.66
2023-04-15T03:42:19.645Z,57.55
2023-04-15T03:44:46.499Z,57.59
2023-04-15T03:47:13.223Z,57.89
2023-04-15T03:49:39.770Z,58.08
2023-04-15T03:52:06.416Z,57.97
2023-04-15T03:54:33.124Z,58.17
2023-04-15T03:56:59.786Z,58.24
2023-04-15T03:59:26.354Z,58.67
2023-04-15T04:01:52.972Z,58.80
2023-04-15T04:04:19.756Z,58.88
2023-04-15T04:06:46.536Z,58.79
2023-04-15T04:09:13.192Z,59.08
2023-04-15T04:11:39.775Z,59.14
2023-04-15T04:14:06.578Z,59.11
2023-04-15T04:16:33.307Z,59.67
2023-04-15T04:19:00.231Z,59.64
2023-04-15T04:21:27.156Z,60.12
2023-04-15T04:23:53.837Z,60.39
2023-04-15T04:26:20.772Z,60.34
2023-04-15T04:28:47.420Z,61.01
2023-04-15T04:31:14.155Z,60.97
2023-04-15T04:33:41.031Z,61.06
2023-04-15T04:36:07.935Z,61.34
2023-04-15T04:38:34.607Z,61.17
2023-04-15T04:41:01.248Z,61.04
2023-04-15T04:43:27.938Z,60.79
2023-04-15T04:45:54.582Z,60.53
2023-04-15T04:48:21.327Z,60.48
2023-04-15T04:50:48.137Z,60.29
2023-04-15T04:53:15.101Z,60.10
2023-04-15T04:55:41.700Z,59.64
2023-04-15T04:58:08.475Z,59.30
2023-04-15T05:00:35.315Z,59.28
2023-04-15T05:03:02.068Z,59.27
2023-04-15T05:05:28.835Z,59.35
2023-04-15T05:07:55.631Z,59.06
2023-04-15T05:10:22.285Z,59.69
2023-04-15T05:12:48.874Z,59.91
2023-04-15T05:15:15.630Z,59.66
2023-04-15T05:17:42.252Z,60.38
2023-04-15T05:20:09.812Z,60.48
2023-04-15T05:22:37.115Z,60.83
2023-04-15T05:25:04.122Z,60.62
2023-04-15T05:27:30.933Z,60.60
2023-04-15T05:29:57.576Z,60.51
2023-04-15T05:32:24.386Z,60.55
2023-04-15T05:34:51.501Z,60.52
2023-04-15T05:37:20.867Z,60.18
2023-04-15T05:39:48.445Z,60.14
2023-04-15T05:42:15.479Z,59.86
2023-04-15T05:44:42.536Z,59.70
2023-04-15T05:47:10.335Z,59.19
2023-04-15T05:49:37.223Z,58.94
2023-04-15T05:52:04.002Z,59.04
2023-04-15T05:54:30.753Z,58.71
2023-04-15T05:56:58.336Z,58.65
2023-04-15T05:59:24.979Z,58.53
2023-04-15T06:01:52.251Z,58.29
2023-04-15T06:04:19.111Z,57.93
2023-04-15T06:06:46.310Z,57.71
2023-04-15T06:09:13.039Z,57.20
2023-04-15T06:11:41.430Z,56.90
2023-04-15T06:14:08.438Z,56.35
2023-04-15T06:16:36.881Z,55.89
2023-04-15T06:19:04.022Z,55.38
2023-04-15T06:21:31.528Z,55.32
2023-04-15T06:24:01.497Z,55.30
2023-04-15T06:26:28.546Z,55.09
2023-04-15T06:28:55.701Z,54.99
2023-04-15T06:31:22.724Z,54.49
2023-04-15T06:33:49.754Z,54.56
2023-04-15T06:36:16.719Z,54.25
2023-04-15T06:38:43.455Z,54.18
2023-04-15T06:41:10.334Z,53.84
2023-04-15T06:43:36.996Z,53.45
2023-04-15T06:46:03.835Z,53.15
2023-04-15T06:48:30.686Z,52.94
2023-04-15T06:50:58.407Z,52.85
2023-04-15T06:53:28.081Z,52.28
2023-04-15T06:55:55.157Z,51.79
2023-04-15T06:58:22.077Z,51.76
2023-04-15T07:00:49.247Z,50.96
2023-04-15T07:03:16.241Z,49.92
2023-04-15T07:05:43.570Z,49.64
2023-04-15T07:08:10.531Z,50.27
2023-04-15T07:10:37.355Z,50.21
2023-04-15T07:13:04.890Z,50.16
2023-04-15T07:15:31.469Z,50.12
2023-04-15T07:17:58.244Z,50.04
2023-04-15T07:20:25.178Z,49.26
2023-04-15T07:22:51.985Z,49.54
2023-04-15T07:25:19.141Z,49.51
2023-04-15T07:27:45.977Z,49.51
2023-04-15T07:30:13.320Z,49.35
2023-04-15T07:32:40.664Z,48.77
2023-04-15T07:35:08.050Z,48.66
2023-04-15T07:37:34.790Z,48.46
2023-04-15T07:40:01.988Z,48.30
2023-04-15T07:42:29.413Z,48.30
2023-04-15T07:44:56.869Z,48.36
2023-04-15T07:47:23.674Z,47.84
2023-04-15T07:49:51.569Z,47.38
2023-04-15T07:52:18.660Z,46.65
2023-04-15T07:54:45.685Z,47.09
2023-04-15T07:57:12.266Z,46.61
2023-04-15T07:59:38.882Z,46.17
2023-04-15T08:02:05.557Z,45.31
2023-04-15T08:04:32.750Z,45.32
2023-04-15T08:06:59.983Z,45.04
2023-04-15T08:09:27.467Z,44.28
2023-04-15T08:11:54.288Z,44.49
2023-04-15T08:14:21.162Z,43.99
2023-04-15T08:16:47.828Z,43.96
2023-04-15T08:19:14.535Z,43.71
2023-04-15T08:21:41.179Z,42.18
2023-04-15T08:24:08.326Z,42.69
2023-04-15T08:26:34.939Z,42.35
2023-04-15T08:29:01.892Z,42.49
2023-04-15T08:31:30.247Z,42.28
2023-04-15T08:33:57.899Z,42.09
2023-04-15T08:36:24.473Z,40.70
2023-04-15T08:38:51.315Z,40.96
2023-04-15T08:41:23.687Z,41.70
2023-04-15T08:43:58.168Z,41.04
2023-04-15T08:46:25.641Z,41.09
2023-04-15T08:48:53.903Z,41.63
2023-04-15T08:51:21.481Z,41.08
2023-04-15T08:53:50.334Z,40.90
2023-04-15T08:56:18.545Z,40.11
2023-04-15T08:58:46.835Z,40.47
2023-04-15T09:01:13.937Z,40.23
2023-04-15T09:03:42.017Z,40.55
2023-04-15T09:06:09.052Z,40.32
2023-04-15T09:08:35.988Z,39.63
2023-04-15T09:11:05.729Z,39.35
2023-04-15T09:13:32.513Z,39.08
2023-04-15T09:16:01.605Z,38.65
2023-04-15T09:18:33.619Z,39.02
2023-04-15T09:21:09.059Z,39.34
2023-04-15T09:23:36.557Z,38.73
2023-04-15T09:26:03.896Z,37.81
2023-04-15T09:28:31.169Z,37.89
2023-04-15T09:31:02.792Z,38.32
2023-04-15T09:33:30.321Z,38.15
2023-04-15T09:35:58.539Z,38.19
2023-04-15T09:38:25.163Z,37.26
2023-04-15T09:40:52.183Z,37.16
2023-04-15T09:43:18.795Z,36.56
2023-04-15T09:45:53.982Z,36.19
2023-04-15T09:48:27.356Z,35.92
2023-04-15T09:50:54.813Z,35.45
2023-04-15T09:53:23.247Z,35.03
2023-04-15T09:55:52.456Z,33.90
2023-04-15T09:58:27.532Z,33.78
2023-04-15T10:00:57.030Z,34.50
2023-04-15T10:03:27.701Z,34.05
2023-04-15T10:05:57.294Z,33.22
2023-04-15T10:08:27.514Z,32.76
2023-04-15T10:10:54.955Z,33.25
2023-04-15T10:13:24.595Z,33.96
2023-04-15T10:16:05.349Z,34.53
2023-04-15T10:18:36.128Z,34.12
2023-04-15T10:21:02.773Z,34.95
2023-04-15T10:23:29.470Z,34.63
2023-04-15T10:25:56.714Z,34.80
2023-04-15T10:28:23.356Z,34.20
2023-04-15T10:30:50.313Z,34.44
2023-04-15T10:33:20.652Z,34.63
2023-04-15T10:35:49.156Z,34.51
2023-04-15T10:38:33.208Z,35.21
2023-04-15T10:41:31.310Z,35.78
2023-04-15T10:44:04.433Z,36.41
2023-04-15T10:47:01.184Z,37.04
2023-04-15T10:49:27.967Z,38.12
2023-04-15T10:51:59.220Z,38.24
2023-04-15T10:54:25.812Z,38.82
2023-04-15T10:57:07.850Z,38.91
2023-04-15T10:59:59.664Z,39.08
2023-04-15T11:02:41.255Z,39.25
2023-04-15T11:05:09.151Z,38.50
2023-04-15T11:07:52.239Z,38.60
2023-04-15T11:10:20.960Z,38.66
2023-04-15T11:12:51.934Z,39.15
2023-04-15T11:15:37.944Z,39.15
2023-04-15T11:18:24.828Z,38.21
2023-04-15T11:20:59.749Z,37.81
2023-04-15T11:23:31.408Z,38.21
2023-04-15T11:25:59.506Z,38.84
2023-04-15T11:28:28.254Z,38.59
2023-04-15T11:30:56.233Z,37.89
2023-04-15T11:33:24.614Z,38.21
2023-04-15T11:35:56.661Z,38.51
2023-04-15T11:38:23.423Z,38.85
2023-04-15T11:40:52.680Z,39.23
2023-04-15T11:43:22.097Z,39.39
2023-04-15T11:45:51.506Z,39.09
2023-04-15T11:48:19.301Z,38.40
2023-04-15T11:50:46.481Z,38.50
2023-04-15T11:53:14.162Z,37.90
2023-04-15T11:55:47.087Z,37.97
2023-04-15T11:58:23.383Z,37.27
2023-04-15T12:00:52.455Z,37.17
2023-04-15T12:03:25.014Z,37.69
2023-04-15T12:06:16.748Z,37.70
2023-04-15T12:08:56.254Z,36.43
2023-04-15T12:11:47.265Z,36.60
2023-04-15T12:14:22.984Z,36.83
2023-04-15T12:16:53.953Z,37.18
2023-04-15T12:19:29.480Z,37.70
2023-04-15T12:22:01.488Z,38.09
2023-04-15T12:24:31.559Z,38.87
2023-04-15T12:27:03.135Z,39.43
2023-04-15T12:29:31.105Z,39.84
2023-04-15T12:32:03.959Z,40.40
2023-04-15T12:34:33.124Z,41.07
2023-04-15T12:37:02.048Z,41.35
2023-04-15T12:39:31.585Z,41.52
2023-04-15T12:42:00.536Z,41.55
2023-04-15T12:44:28.084Z,41.74
2023-04-15T12:46:55.077Z,41.72
2023-04-15T12:49:23.242Z,41.74
2023-04-15T12:51:51.620Z,42.09
2023-04-15T12:54:18.885Z,42.29
2023-04-15T12:56:46.654Z,41.80
2023-04-15T12:59:14.114Z,41.44
2023-04-15T13:01:41.504Z,40.87
2023-04-15T13:04:08.716Z,39.83
2023-04-15T13:06:36.392Z,39.58
2023-04-15T13:09:05.276Z,39.10
2023-04-15T13:11:33.982Z,38.34
2023-04-15T13:14:02.391Z,38.23
2023-04-15T13:16:29.728Z,38.55
2023-04-15T13:18:56.449Z,38.76
2023-04-15T13:21:23.699Z,38.53
2023-04-15T13:23:52.968Z,38.79
2023-04-15T13:26:19.746Z,38.83
2023-04-15T13:28:46.791Z,39.23
2023-04-15T13:31:13.726Z,39.25
2023-04-15T13:33:40.562Z,39.40
2023-04-15T13:36:07.435Z,39.48
2023-04-15T13:38:34.007Z,39.57
2023-04-15T13:41:00.835Z,39.14
2023-04-15T13:43:27.638Z,38.95
2023-04-15T13:45:54.381Z,38.16
2023-04-15T13:48:21.107Z,37.56
2023-04-15T13:50:47.681Z,37.37
2023-04-15T13:53:14.338Z,37.30
2023-04-15T13:55:42.700Z,37.09
2023-04-15T13:58:10.282Z,37.19
2023-04-15T14:00:37.440Z,37.88
2023-04-15T14:03:05.038Z,37.49
2023-04-15T14:05:32.716Z,37.61
2023-04-15T14:08:00.519Z,37.56
2023-04-15T14:10:27.202Z,37.69
2023-04-15T14:12:53.884Z,37.41
2023-04-15T14:15:21.211Z,37.27
2023-04-15T14:17:47.966Z,36.84
2023-04-15T14:20:16.742Z,36.75
2023-04-15T14:22:44.287Z,36.87
2023-04-15T14:25:15.121Z,37.01
2023-04-15T14:27:50.070Z,37.17
2023-04-15T14:30:16.748Z,37.46
2023-04-15T14:32:43.412Z,37.35
2023-04-15T14:35:10.139Z,37.47
2023-04-15T14:37:36.764Z,37.67
2023-04-15T14:40:03.662Z,37.68
2023-04-15T14:42:30.459Z,37.84
2023-04-15T14:44:57.063Z,38.66
2023-04-15T14:47:24.533Z,38.95
2023-04-15T14:49:51.390Z,39.13
2023-04-15T14:52:18.014Z,39.55
2023-04-15T14:54:44.694Z,39.49
2023-04-15T14:57:11.323Z,39.54
2023-04-15T14:59:37.985Z,39.79
2023-04-15T15:02:04.713Z,39.71
2023-04-15T15:04:33.485Z,39.89
2023-04-15T15:07:00.797Z,39.64
2023-04-15T15:09:27.530Z,39.52
2023-04-15T15:11:54.130Z,39.34
2023-04-15T15:14:20.774Z,39.70
2023-04-15T15:16:47.648Z,39.71
2023-04-15T15:19:14.424Z,39.60
2023-04-15T15:21:41.045Z,39.54
2023-04-15T15:24:07.744Z,39.50
2023-04-15T15:26:34.485Z,39.68
2023-04-15T15:29:01.347Z,39.62
2023-04-15T15:31:28.121Z,39.82
2023-04-15T15:33:54.776Z,39.99
2023-04-15T15:36:21.382Z,40.18
2023-04-15T15:38:48.019Z,40.42
2023-04-15T15:41:15.798Z,40.78
2023-04-15T15:43:42.503Z,40.97
2023-04-15T15:46:09.262Z,41.19
2023-04-15T15:48:36.108Z,40.99
2023-04-15T15:51:04.249Z,40.94
2023-04-15T15:53:31.326Z,41.02
2023-04-15T15:55:58.074Z,41.17
2023-04-15T15:58:24.802Z,41.28
2023-04-15T16:00:51.462Z,41.25
2023-04-15T16:03:18.655Z,41.38
2023-04-15T16:05:46.252Z,41.33
2023-04-15T16:08:12.865Z,41.01
2023-04-15T16:10:39.493Z,40.95
2023-04-15T16:13:06.094Z,41.09
2023-04-15T16:15:32.762Z,41.27
2023-04-15T16:17:59.402Z,41.61
2023-04-15T16:20:26.617Z,41.28
2023-04-15T16:22:53.274Z,41.43
2023-04-15T16:25:20.088Z,41.53
2023-04-15T16:27:58.878Z,41.59
2023-04-15T16:30:30.172Z,41.62
2023-04-15T16:32:57.331Z,41.91
2023-04-15T16:35:24.058Z,42.49
2023-04-15T16:37:51.924Z,42.45
2023-04-15T16:40:18.769Z,42.77
2023-04-15T16:42:45.674Z,43.11
2023-04-15T16:45:12.594Z,43.65
2023-04-15T16:47:39.308Z,43.69
2023-04-15T16:50:06.814Z,43.97
2023-04-15T16:52:33.645Z,44.17
2023-04-15T16:55:00.446Z,43.88
2023-04-15T16:58:00.908Z,44.22
2023-04-15T17:00:14.804Z,44.53
2023-04-15T17:02:41.533Z,44.51
2023-04-15T17:05:08.778Z,44.45
2023-04-15T17:07:35.687Z,44.55
2023-04-15T17:10:02.286Z,44.52
2023-04-15T17:12:30.069Z,44.74
2023-04-15T17:14:57.021Z,44.90
2023-04-15T17:17:23.653Z,45.10
2023-04-15T17:19:50.322Z,45.20
2023-04-15T17:22:17.140Z,45.65
2023-04-15T17:24:43.759Z,46.34
2023-04-15T17:27:10.585Z,46.74
2023-04-15T17:29:37.246Z,47.08
2023-04-15T17:32:04.144Z,47.42
2023-04-15T17:34:50.252Z,47.97
2023-04-15T17:37:17.954Z,48.45
2023-04-15T17:39:44.606Z,48.95
2023-04-15T17:42:11.561Z,48.96
2023-04-15T17:44:38.364Z,49.15
2023-04-15T17:47:05.383Z,49.37
2023-04-15T17:49:34.188Z,49.72
2023-04-15T17:52:01.335Z,49.64
2023-04-15T17:54:28.351Z,49.71
2023-04-15T17:56:56.656Z,49.85
2023-04-15T17:59:23.777Z,49.94
2023-04-15T18:01:50.576Z,50.33
2023-04-15T18:04:17.508Z,50.62
2023-04-15T18:06:45.305Z,50.73
2023-04-15T18:09:13.414Z,51.02
2023-04-15T18:11:41.046Z,51.32
2023-04-15T18:14:07.845Z,51.37
2023-04-15T18:16:34.704Z,51.21
2023-04-15T18:19:01.890Z,51.13
2023-04-15T18:21:28.482Z,51.06
2023-04-15T18:23:55.370Z,51.03
2023-04-15T18:26:22.090Z,51.03
2023-04-15T18:28:48.702Z,51.29
2023-04-15T18:31:15.753Z,51.29
2023-04-15T18:33:42.467Z,51.38
2023-04-15T18:36:10.418Z,51.30
2023-04-15T18:38:37.133Z,51.42
2023-04-15T18:41:05.417Z,51.25
2023-04-15T18:43:32.507Z,51.34
2023-04-15T18:45:59.748Z,51.34
2023-04-15T18:48:27.069Z,51.36
2023-04-15T18:50:54.208Z,51.36
2023-04-15T18:53:21.725Z,51.55
2023-04-15T18:55:51.585Z,51.71
2023-04-15T18:58:18.387Z,51.74
2023-04-15T19:00:45.098Z,51.82
2023-04-15T19:03:11.826Z,51.87
2023-04-15T19:05:38.576Z,51.92
2023-04-15T19:08:05.485Z,51.82
2023-04-15T19:10:33.845Z,51.73
2023-04-15T19:13:00.565Z,51.67
2023-04-15T19:15:27.422Z,51.61
2023-04-15T19:17:54.484Z,51.68
2023-04-15T19:20:21.250Z,51.60
2023-04-15T19:22:48.214Z,51.42
2023-04-15T19:25:14.968Z,51.64
2023-04-15T19:27:41.537Z,51.71
2023-04-15T19:30:08.877Z,51.61
2023-04-15T19:32:35.918Z,51.65
2023-04-15T19:35:02.590Z,51.64
2023-04-15T19:37:29.299Z,51.52
2023-04-15T19:39:56.193Z,51.47
2023-04-15T19:42:22.839Z,51.38
2023-04-15T19:44:49.487Z,51.36
2023-04-15T19:47:16.603Z,51.30
2023-04-15T19:49:43.537Z,51.22
2023-04-15T19:52:10.236Z,51.19
2023-04-15T19:54:37.138Z,51.28
2023-04-15T19:57:04.098Z,51.42
2023-04-15T19:59:30.811Z,51.26
2023-04-15T20:01:57.730Z,51.18
2023-04-15T20:04:24.455Z,51.27
2023-04-15T20:06:51.349Z,51.19
2023-04-15T20:09:17.980Z,51.20
2023-04-15T20:12:09.715Z,51.15
2023-04-15T20:14:31.279Z,51.11
2023-04-15T20:16:57.910Z,50.80
2023-04-15T20:19:24.589Z,50.64
2023-04-15T20:21:52.521Z,50.62
2023-04-15T20:24:20.407Z,50.48
2023-04-15T20:26:47.425Z,50.35
2023-04-15T20:29:14.134Z,50.22
2023-04-15T20:31:41.201Z,50.04
2023-04-15T20:34:09.975Z,50.04
2023-04-15T20:36:38.086Z,50.08
2023-04-15T20:39:04.832Z,50.03
2023-04-15T20:41:31.775Z,49.87
2023-04-15T20:43:58.516Z,49.83
2023-04-15T20:46:27.322Z,49.80
2023-04-15T20:48:54.536Z,49.74
2023-04-15T20:51:21.314Z,49.69
2023-04-15T20:53:48.104Z,49.68
2023-04-15T20:56:14.698Z,49.68
2023-04-15T20:58:41.405Z,49.86
2023-04-15T21:01:08.073Z,49.82
2023-04-15T21:03:35.175Z,49.79
2023-04-15T21:06:02.066Z,49.85
2023-04-15T21:08:31.864Z,49.88
2023-04-15T21:10:58.593Z,49.92
2023-04-15T21:13:25.229Z,49.86
2023-04-15T21:15:54.363Z,49.93
2023-04-15T21:18:21.913Z,49.98
2023-04-15T21:21:02.139Z,49.92
2023-04-15T21:23:29.959Z,49.92
2023-04-15T21:25:57.639Z,49.92
2023-04-15T21:28:24.423Z,50.02
2023-04-15T21:30:51.243Z,50.07
2023-04-15T21:33:20.414Z,50.09
2023-04-15T21:35:47.537Z,50.16
2023-04-15T21:38:14.730Z,50.26
2023-04-15T21:40:41.364Z,50.30
2023-04-15T21:43:08.684Z,50.31
2023-04-15T21:45:36.513Z,50.41
2023-04-15T21:48:08.278Z,50.58
2023-04-15T21:50:36.810Z,50.71
2023-04-15T21:53:04.020Z,50.84
2023-04-15T21:55:30.627Z,50.90
2023-04-15T21:57:57.208Z,50.95
2023-04-15T22:00:24.247Z,50.95
2023-04-15T22:02:52.036Z,51.12
2023-04-15T22:05:19.071Z,51.22
2023-04-15T22:07:46.018Z,51.21
2023-04-15T22:10:12.566Z,51.28
2023-04-15T22:12:42.476Z,51.37
2023-04-15T22:15:09.372Z,51.38
2023-04-15T22:17:35.971Z,51.42
2023-04-15T22:20:03.216Z,51.44
2023-04-15T22:22:43.484Z,51.44
2023-04-15T22:25:11.934Z,51.53
2023-04-15T22:27:38.615Z,51.54
2023-04-15T22:30:06.040Z,51.71
2023-04-15T22:32:32.704Z,51.67
2023-04-15T22:34:59.323Z,51.83
2023-04-15T22:37:26.442Z,51.79
2023-04-15T22:39:53.161Z,51.69
2023-04-15T22:42:19.795Z,51.77
2023-04-15T22:44:46.737Z,51.85
2023-04-15T22:47:13.563Z,51.81
2023-04-15T22:49:41.468Z,51.88
2023-04-15T22:52:10.368Z,52.02
2023-04-15T22:54:38.879Z,52.19
2023-04-15T22:57:05.460Z,52.39
2023-04-15T22:59:32.214Z,52.32
2023-04-15T23:01:59.534Z,52.43
2023-04-15T23:04:26.964Z,52.59
2023-04-15T23:06:54.525Z,52.84
2023-04-15T23:09:21.513Z,52.69
2023-04-15T23:11:48.161Z,53.01
2023-04-15T23:14:14.749Z,52.98
2023-04-15T23:16:41.465Z,52.95
2023-04-15T23:19:08.763Z,53.49
2023-04-15T23:21:35.938Z,53.36
2023-04-15T23:24:02.646Z,53.30
2023-04-15T23:26:29.552Z,53.25
2023-04-15T23:28:56.108Z,53.30
2023-04-15T23:31:22.873Z,53.26
2023-04-15T23:33:49.580Z,53.08
2023-04-15T23:36:16.347Z,53.23
2023-04-15T23:38:43.015Z,53.25
2023-04-15T23:41:12.143Z,53.01
2023-04-15T23:43:39.161Z,52.89
2023-04-15T23:46:05.956Z,52.73
2023-04-15T23:48:32.891Z,52.47
2023-04-15T23:51:01.698Z,52.20
2023-04-15T23:53:29.966Z,52.02
2023-04-15T23:55:56.950Z,51.86
2023-04-15T23:58:24.160Z,51.66
